createdAt,value
2023-01-12T00:01:30.205Z,4.67
2023-01-12T00:04:17.991Z,3.93
2023-01-12T00:07:14.357Z,3.30
2023-01-12T00:10:01.834Z,4.27
2023-01-12T00:12:49.409Z,4.03
2023-01-12T00:15:55.684Z,3.03
2023-01-12T00:18:43.368Z,4.47
2023-01-12T00:21:36.999Z,3.83
2023-01-12T00:24:35.602Z,3.60
2023-01-12T00:27:23.110Z,2.87
2023-01-12T00:30:12.069Z,4.73
2023-01-12T00:32:59.930Z,5.20
2023-01-12T00:35:47.419Z,3.53
2023-01-12T00:38:36.713Z,3.33
2023-01-12T00:41:42.705Z,3.20
2023-01-12T00:44:49.408Z,3.47
2023-01-12T00:47:37.095Z,2.33
2023-01-12T00:50:24.611Z,1.67
2023-01-12T00:53:13.351Z,1.67
2023-01-12T00:56:05.631Z,1.43
2023-01-12T00:58:53.166Z,1.30
2023-01-12T01:01:41.027Z,1.33
2023-01-12T01:04:28.686Z,1.00
2023-01-12T01:07:17.298Z,1.03
2023-01-12T01:10:05.776Z,0.87
2023-01-12T01:12:53.346Z,0.73
2023-01-12T01:15:40.990Z,0.90
2023-01-12T01:18:29.758Z,1.37
2023-01-12T01:21:19.106Z,0.60
2023-01-12T01:24:13.530Z,0.70
2023-01-12T01:27:01.199Z,0.90
2023-01-12T01:29:48.828Z,0.50
2023-01-12T01:32:36.473Z,0.80
2023-01-12T01:35:24.458Z,0.93
2023-01-12T01:38:12.090Z,1.00
2023-01-12T01:41:00.314Z,0.70
2023-01-12T01:43:59.772Z,1.17
2023-01-12T01:46:58.585Z,0.60
2023-01-12T01:49:55.407Z,1.10
2023-01-12T01:52:53.489Z,0.67
2023-01-12T01:56:26.511Z,0.70
2023-01-12T01:59:23.104Z,0.90
2023-01-12T02:02:11.772Z,0.70
2023-01-12T02:05:00.806Z,0.93
2023-01-12T02:07:50.758Z,1.37
2023-01-12T02:10:39.321Z,0.87
2023-01-12T02:13:50.210Z,0.53
2023-01-12T02:16:55.519Z,0.60
2023-01-12T02:20:40.082Z,0.70
2023-01-12T02:24:14.931Z,0.90
2023-01-12T02:27:32.615Z,0.83
2023-01-12T02:31:32.943Z,0.43
2023-01-12T02:34:35.334Z,0.70
2023-01-12T02:37:48.514Z,0.83
2023-01-12T02:41:12.672Z,0.50
2023-01-12T02:44:01.713Z,0.60
2023-01-12T02:46:52.391Z,0.40
2023-01-12T02:49:48.088Z,0.70
2023-01-12T02:52:35.875Z,0.67
2023-01-12T02:55:27.428Z,0.70
2023-01-12T02:58:21.211Z,0.80
2023-01-12T03:01:11.879Z,0.77
2023-01-12T03:04:06.038Z,0.60
2023-01-12T03:06:59.091Z,0.50
2023-01-12T03:09:54.660Z,0.63
2023-01-12T03:12:45.091Z,0.90
2023-01-12T03:15:37.539Z,1.30
2023-01-12T03:18:34.485Z,1.33
2023-01-12T03:21:36.183Z,0.80
2023-01-12T03:24:42.154Z,2.50
2023-01-12T03:27:39.384Z,0.97
2023-01-12T03:30:47.093Z,1.80
2023-01-12T03:33:35.747Z,0.50
2023-01-12T03:36:47.713Z,0.90
2023-01-12T03:39:51.231Z,0.77
2023-01-12T03:42:48.653Z,0.77
2023-01-12T03:46:04.854Z,0.80
2023-01-12T03:49:23.605Z,0.90
2023-01-12T03:52:13.847Z,0.80
2023-01-12T03:55:05.554Z,0.90
2023-01-12T03:57:54.505Z,0.80
2023-01-12T04:00:42.227Z,1.10
2023-01-12T04:03:30.372Z,1.00
2023-01-12T04:06:17.935Z,1.00
2023-01-12T04:09:05.506Z,1.10
2023-01-12T04:12:11.387Z,1.00
2023-01-12T04:14:59.480Z,0.90
2023-01-12T04:17:46.950Z,1.37
2023-01-12T04:20:34.495Z,1.80
2023-01-12T04:23:21.974Z,1.20
2023-01-12T04:26:09.527Z,1.30
2023-01-12T04:28:57.027Z,1.50
2023-01-12T04:31:44.593Z,0.70
2023-01-12T04:34:32.060Z,1.23
2023-01-12T04:37:19.545Z,0.90
2023-01-12T04:40:09.677Z,0.70
2023-01-12T04:43:08.411Z,2.07
2023-01-12T04:45:56.484Z,1.20
2023-01-12T04:48:45.735Z,1.17
2023-01-12T04:51:33.239Z,1.20
2023-01-12T04:54:20.730Z,2.50
2023-01-12T04:57:08.165Z,0.73
2023-01-12T04:59:55.732Z,2.13
2023-01-12T05:02:43.210Z,1.33
2023-01-12T05:05:33.057Z,1.20
2023-01-12T05:08:39.336Z,1.30
2023-01-12T05:11:29.618Z,0.60
2023-01-12T05:14:17.085Z,1.37
2023-01-12T05:17:05.324Z,1.23
2023-01-12T05:19:52.769Z,1.10
2023-01-12T05:22:40.324Z,0.70
2023-01-12T05:25:29.419Z,1.20
2023-01-12T05:28:16.908Z,1.23
2023-01-12T05:31:11.673Z,1.10
2023-01-12T05:33:59.187Z,1.10
2023-01-12T05:36:49.888Z,1.03
2023-01-12T05:39:37.376Z,1.13
2023-01-12T05:42:43.758Z,1.27
2023-01-12T05:45:31.235Z,1.87
2023-01-12T05:48:18.706Z,1.40
2023-01-12T05:51:10.057Z,1.20
2023-01-12T05:53:57.806Z,1.77
2023-01-12T05:56:45.359Z,1.50
2023-01-12T05:59:33.150Z,1.07
2023-01-12T06:02:21.722Z,1.10
2023-01-12T06:05:10.224Z,2.53
2023-01-12T06:08:00.766Z,1.57
2023-01-12T06:10:48.488Z,1.70
2023-01-12T06:13:54.671Z,1.00
2023-01-12T06:16:43.364Z,1.13
2023-01-12T06:19:30.970Z,0.60
2023-01-12T06:22:19.565Z,1.27
2023-01-12T06:25:08.096Z,1.67
2023-01-12T06:27:56.382Z,0.80
2023-01-12T06:30:43.944Z,0.80
2023-01-12T06:33:32.792Z,0.90
2023-01-12T06:36:20.355Z,0.80
2023-01-12T06:39:07.825Z,0.87
2023-01-12T06:42:14.227Z,1.20
2023-01-12T06:45:05.787Z,0.90
2023-01-12T06:47:53.316Z,1.00
2023-01-12T06:50:40.874Z,0.70
2023-01-12T06:53:28.424Z,2.93
2023-01-12T06:56:16.007Z,1.03
2023-01-12T06:59:03.571Z,1.60
2023-01-12T07:01:51.392Z,0.50
2023-01-12T07:04:40.645Z,0.80
2023-01-12T07:07:28.167Z,1.43
2023-01-12T07:10:16.374Z,1.00
2023-01-12T07:13:04.248Z,1.23
2023-01-12T07:15:52.701Z,0.83
2023-01-12T07:18:40.402Z,1.83
2023-01-12T07:21:29.215Z,1.10
2023-01-12T07:24:17.341Z,1.50
2023-01-12T07:27:05.245Z,1.30
2023-01-12T07:29:52.742Z,2.10
2023-01-12T07:32:40.295Z,1.47
2023-01-12T07:35:27.771Z,1.37
2023-01-12T07:38:15.265Z,1.27
2023-01-12T07:41:04.083Z,0.90
2023-01-12T07:43:51.900Z,1.20
2023-01-12T07:46:39.534Z,1.53
2023-01-12T07:49:27.905Z,1.30
2023-01-12T07:52:15.865Z,1.10
2023-01-12T07:55:03.525Z,2.23
2023-01-12T07:58:00.293Z,0.90
2023-01-12T08:00:47.840Z,1.27
2023-01-12T08:03:35.659Z,1.33
2023-01-12T08:06:23.197Z,1.13
2023-01-12T08:09:10.673Z,1.23
2023-01-12T08:11:58.123Z,1.30
2023-01-12T08:14:45.726Z,1.87
2023-01-12T08:17:43.175Z,0.90
2023-01-12T08:20:36.418Z,0.63
2023-01-12T08:23:36.315Z,1.00
2023-01-12T08:26:32.874Z,1.50
2023-01-12T08:29:53.694Z,1.83
2023-01-12T08:32:41.781Z,1.20
2023-01-12T08:35:35.040Z,1.77
2023-01-12T08:38:22.578Z,1.73
2023-01-12T08:41:28.931Z,2.23
2023-01-12T08:44:16.455Z,1.83
2023-01-12T08:47:14.366Z,1.67
2023-01-12T08:50:03.045Z,1.50
2023-01-12T08:52:50.543Z,1.40
2023-01-12T08:55:38.064Z,1.63
2023-01-12T08:58:25.791Z,1.80
2023-01-12T09:01:17.408Z,2.07
2023-01-12T09:04:06.417Z,2.67
2023-01-12T09:06:53.963Z,1.83
2023-01-12T09:09:41.482Z,1.43
2023-01-12T09:12:29.198Z,3.20
2023-01-12T09:15:16.923Z,1.83
2023-01-12T09:18:04.501Z,1.77
2023-01-12T09:20:52.124Z,1.80
2023-01-12T09:23:40.633Z,1.93
2023-01-12T09:26:32.253Z,1.80
2023-01-12T09:29:19.984Z,2.00
2023-01-12T09:32:07.507Z,3.47
2023-01-12T09:34:54.989Z,2.40
2023-01-12T09:37:43.783Z,3.07
2023-01-12T09:40:31.642Z,3.00
2023-01-12T09:43:38.344Z,2.07
2023-01-12T09:47:01.255Z,1.70
2023-01-12T09:50:18.153Z,1.90
2023-01-12T09:53:19.873Z,1.93
2023-01-12T09:56:37.385Z,1.83
2023-01-12T09:59:31.279Z,1.63
2023-01-12T10:02:18.815Z,1.60
2023-01-12T10:05:20.464Z,2.20
2023-01-12T10:08:45.791Z,1.20
2023-01-12T10:11:50.987Z,0.80
2023-01-12T10:15:05.845Z,1.03
2023-01-12T10:18:31.245Z,1.60
2023-01-12T10:21:18.837Z,1.80
2023-01-12T10:24:14.266Z,1.03
2023-01-12T10:27:04.169Z,1.50
2023-01-12T10:29:52.873Z,1.13
2023-01-12T10:32:42.269Z,1.20
2023-01-12T10:35:29.987Z,1.73
2023-01-12T10:38:25.905Z,1.53
2023-01-12T10:41:17.321Z,1.47
2023-01-12T10:44:16.306Z,1.07
2023-01-12T10:47:16.036Z,1.00
2023-01-12T10:50:20.239Z,1.10
2023-01-12T10:53:17.558Z,1.73
2023-01-12T10:56:46.815Z,1.20
2023-01-12T10:59:39.296Z,0.87
2023-01-12T11:02:32.389Z,2.10
2023-01-12T11:05:38.882Z,1.13
2023-01-12T11:08:29.150Z,1.50
2023-01-12T11:11:31.602Z,2.03
2023-01-12T11:14:31.622Z,1.40
2023-01-12T11:17:51.225Z,1.57
2023-01-12T11:20:55.828Z,1.10
2023-01-12T11:24:47.564Z,0.83
2023-01-12T11:27:48.089Z,2.13
2023-01-12T11:30:44.369Z,1.13
2023-01-12T11:33:54.931Z,1.30
2023-01-12T11:36:50.681Z,1.23
2023-01-12T11:39:41.296Z,1.30
2023-01-12T11:42:50.666Z,1.37
2023-01-12T11:45:53.690Z,0.83
2023-01-12T11:49:24.584Z,0.80
2023-01-12T11:52:16.751Z,1.60
2023-01-12T11:55:04.787Z,1.07
2023-01-12T11:58:20.306Z,1.37
2023-01-12T12:01:23.247Z,1.37
2023-01-12T12:04:43.417Z,1.20
2023-01-12T12:08:28.582Z,1.50
2023-01-12T12:11:41.865Z,1.33
2023-01-12T12:14:47.455Z,1.77
2023-01-12T12:17:55.881Z,0.83
2023-01-12T12:21:09.700Z,0.77
2023-01-12T12:24:32.322Z,1.07
2023-01-12T12:27:41.756Z,1.33
2023-01-12T12:31:02.319Z,0.90
2023-01-12T12:34:11.973Z,1.07
2023-01-12T12:37:35.775Z,2.37
2023-01-12T12:41:25.418Z,1.80
2023-01-12T12:44:55.447Z,2.00
2023-01-12T12:48:00.908Z,1.80
2023-01-12T12:51:08.626Z,1.40
2023-01-12T12:53:57.677Z,1.40
2023-01-12T12:56:47.436Z,1.30
2023-01-12T12:59:34.904Z,1.37
2023-01-12T13:02:54.495Z,1.27
2023-01-12T13:05:48.012Z,2.73
2023-01-12T13:08:37.289Z,1.37
2023-01-12T13:11:54.084Z,1.23
2023-01-12T13:14:43.710Z,4.50
2023-01-12T13:17:31.870Z,1.47
2023-01-12T13:20:25.792Z,1.60
2023-01-12T13:23:50.806Z,1.77
2023-01-12T13:26:42.662Z,0.97
2023-01-12T13:29:30.267Z,1.10
2023-01-12T13:32:35.692Z,1.17
2023-01-12T13:35:35.523Z,1.20
2023-01-12T13:38:45.041Z,1.60
2023-01-12T13:41:56.256Z,2.20
2023-01-12T13:44:44.875Z,0.90
2023-01-12T13:47:33.835Z,1.07
2023-01-12T13:50:27.535Z,1.70
2023-01-12T13:53:28.785Z,1.23
2023-01-12T13:56:21.018Z,1.00
2023-01-12T13:59:19.419Z,1.60
2023-01-12T14:02:18.770Z,1.40
2023-01-12T14:05:32.726Z,0.97
2023-01-12T14:08:30.711Z,1.43
2023-01-12T14:11:49.420Z,2.00
2023-01-12T14:15:29.659Z,1.70
2023-01-12T14:18:24.722Z,1.00
2023-01-12T14:21:37.742Z,1.40
2023-01-12T14:24:25.841Z,1.37
2023-01-12T14:27:26.151Z,1.50
2023-01-12T14:30:15.434Z,1.60
2023-01-12T14:33:02.971Z,1.13
2023-01-12T14:35:56.213Z,1.23
2023-01-12T14:38:45.836Z,1.90
2023-01-12T14:41:52.552Z,1.57
2023-01-12T14:45:15.316Z,1.67
2023-01-12T14:48:24.849Z,1.23
2023-01-12T14:51:32.647Z,0.73
2023-01-12T14:54:29.675Z,0.90
2023-01-12T14:57:36.471Z,1.00
2023-01-12T15:00:38.301Z,0.80
2023-01-12T15:03:35.432Z,1.70
2023-01-12T15:06:27.461Z,1.40
2023-01-12T15:09:35.426Z,0.70
2023-01-12T15:12:30.403Z,1.10
2023-01-12T15:15:50.166Z,0.90
2023-01-12T15:18:57.163Z,1.20
2023-01-12T15:22:06.292Z,0.97
2023-01-12T15:25:15.816Z,1.47
2023-01-12T15:28:06.205Z,1.50
2023-01-12T15:30:55.802Z,1.13
2023-01-12T15:33:43.860Z,1.37
2023-01-12T15:36:31.742Z,1.40
2023-01-12T15:39:19.276Z,1.20
2023-01-12T15:42:18.158Z,4.97
2023-01-12T15:45:40.943Z,0.73
2023-01-12T15:48:28.866Z,0.70
2023-01-12T15:51:16.907Z,0.83
2023-01-12T15:54:05.841Z,0.80
2023-01-12T15:56:54.170Z,1.20
2023-01-12T15:59:42.083Z,0.93
2023-01-12T16:02:38.593Z,1.40
2023-01-12T16:05:26.655Z,1.63
2023-01-12T16:08:14.444Z,1.37
2023-01-12T16:11:13.739Z,0.67
2023-01-12T16:14:01.513Z,0.97
2023-01-12T16:16:49.435Z,1.10
2023-01-12T16:19:41.421Z,0.93
2023-01-12T16:22:29.193Z,0.90
2023-01-12T16:25:17.827Z,0.80
2023-01-12T16:28:05.755Z,0.70
2023-01-12T16:30:55.073Z,1.00
2023-01-12T16:33:44.101Z,1.10
2023-01-12T16:36:31.685Z,1.03
2023-01-12T16:39:19.215Z,0.90
2023-01-12T16:42:07.135Z,1.30
2023-01-12T16:44:54.778Z,1.93
2023-01-12T16:47:42.461Z,1.20
2023-01-12T16:50:30.024Z,1.87
2023-01-12T16:53:17.585Z,1.70
2023-01-12T16:56:05.503Z,1.20
2023-01-12T16:58:53.195Z,1.23
2023-01-12T17:01:40.843Z,1.37
2023-01-12T17:04:28.465Z,1.33
2023-01-12T17:07:16.233Z,1.37
2023-01-12T17:10:04.544Z,1.07
2023-01-12T17:12:55.730Z,1.63
2023-01-12T17:15:46.971Z,1.37
2023-01-12T17:18:34.954Z,1.17
2023-01-12T17:21:23.658Z,1.20
2023-01-12T17:24:16.844Z,1.70
2023-01-12T17:27:04.564Z,1.43
2023-01-12T17:29:52.706Z,1.37
2023-01-12T17:32:43.057Z,1.70
2023-01-12T17:35:30.793Z,1.87
2023-01-12T17:38:18.607Z,1.67
2023-01-12T17:41:36.101Z,1.43
2023-01-12T17:44:23.748Z,1.13
2023-01-12T17:47:12.881Z,1.60
2023-01-12T17:50:00.850Z,1.53
2023-01-12T17:52:49.035Z,1.70
2023-01-12T17:55:47.567Z,1.60
2023-01-12T17:58:37.199Z,1.53
2023-01-12T18:01:29.639Z,2.17
2023-01-12T18:04:18.319Z,1.70
2023-01-12T18:07:06.312Z,1.60
2023-01-12T18:09:54.639Z,1.83
2023-01-12T18:12:42.259Z,1.20
2023-01-12T18:15:29.780Z,1.40
2023-01-12T18:18:17.669Z,1.50
2023-01-12T18:21:12.726Z,1.03
2023-01-12T18:24:01.536Z,1.57
2023-01-12T18:26:51.130Z,1.37
2023-01-12T18:29:39.278Z,1.53
2023-01-12T18:32:26.994Z,1.73
2023-01-12T18:35:16.663Z,1.27
2023-01-12T18:38:05.164Z,1.50
2023-01-12T18:41:11.818Z,1.00
2023-01-12T18:44:06.366Z,0.93
2023-01-12T18:47:15.090Z,1.23
2023-01-12T18:50:22.870Z,1.40
2023-01-12T18:53:23.798Z,1.90
2023-01-12T18:56:11.393Z,1.73
2023-01-12T18:58:58.939Z,1.47
2023-01-12T19:01:46.540Z,1.30
2023-01-12T19:04:57.093Z,1.27
2023-01-12T19:08:10.876Z,2.00
2023-01-12T19:11:12.076Z,1.63
2023-01-12T19:14:18.635Z,2.00
2023-01-12T19:17:24.757Z,1.47
2023-01-12T19:20:16.095Z,1.77
2023-01-12T19:23:22.147Z,2.03
2023-01-12T19:26:29.503Z,1.93
2023-01-12T19:29:17.489Z,1.60
2023-01-12T19:32:05.152Z,1.53
2023-01-12T19:34:56.589Z,2.13
2023-01-12T19:37:50.756Z,1.80
2023-01-12T19:40:50.311Z,1.87
2023-01-12T19:43:41.676Z,1.60
2023-01-12T19:46:29.221Z,2.30
2023-01-12T19:49:18.150Z,2.20
2023-01-12T19:52:06.153Z,1.80
2023-01-12T19:54:54.320Z,2.30
2023-01-12T19:57:43.490Z,2.27
2023-01-12T20:00:31.104Z,1.80
2023-01-12T20:03:24.228Z,1.50
2023-01-12T20:06:11.775Z,1.97
2023-01-12T20:08:59.774Z,2.60
2023-01-12T20:11:54.635Z,2.07
2023-01-12T20:14:42.966Z,1.97
2023-01-12T20:17:30.971Z,2.13
2023-01-12T20:20:19.663Z,2.37
2023-01-12T20:23:07.468Z,2.40
2023-01-12T20:25:56.248Z,2.80
2023-01-12T20:28:44.327Z,2.90
2023-01-12T20:31:33.565Z,2.67
2023-01-12T20:34:22.307Z,2.60
2023-01-12T20:37:10.363Z,2.83
2023-01-12T20:39:58.149Z,2.33
2023-01-12T20:42:46.781Z,2.13
2023-01-12T20:45:34.473Z,2.00
2023-01-12T20:48:22.025Z,2.50
2023-01-12T20:51:13.361Z,2.93
2023-01-12T20:54:05.924Z,2.10
2023-01-12T20:56:53.504Z,2.13
2023-01-12T20:59:41.550Z,2.07
2023-01-12T21:02:29.300Z,2.17
2023-01-12T21:05:17.202Z,2.47
2023-01-12T21:08:08.354Z,2.30
2023-01-12T21:10:59.686Z,2.00
2023-01-12T21:13:48.229Z,2.43
2023-01-12T21:16:36.372Z,1.97
2023-01-12T21:19:24.526Z,2.00
2023-01-12T21:22:12.961Z,2.20
2023-01-12T21:25:00.637Z,1.83
2023-01-12T21:27:48.550Z,3.57
2023-01-12T21:30:40.701Z,2.50
2023-01-12T21:33:29.025Z,3.53
2023-01-12T21:36:19.265Z,4.67
2023-01-12T21:39:06.772Z,4.83
2023-01-12T21:42:13.209Z,3.60
2023-01-12T21:45:00.767Z,3.57
2023-01-12T21:47:48.540Z,2.00
2023-01-12T21:50:37.182Z,3.33
2023-01-12T21:53:25.028Z,3.30
2023-01-12T21:56:13.863Z,2.13
2023-01-12T21:59:01.400Z,2.37
2023-01-12T22:01:49.479Z,2.07
2023-01-12T22:04:37.440Z,1.90
2023-01-12T22:07:27.746Z,1.60
2023-01-12T22:10:20.641Z,2.80
2023-01-12T22:13:13.986Z,1.77
2023-01-12T22:16:11.982Z,1.63
2023-01-12T22:18:59.947Z,1.83
2023-01-12T22:21:47.649Z,1.93
2023-01-12T22:24:35.453Z,2.03
2023-01-12T22:27:25.766Z,1.80
2023-01-12T22:30:21.213Z,2.63
2023-01-12T22:33:12.393Z,2.00
2023-01-12T22:36:04.176Z,1.33
2023-01-12T22:38:51.930Z,1.70
2023-01-12T22:41:41.272Z,1.57
2023-01-12T22:44:29.017Z,1.30
2023-01-12T22:47:17.185Z,1.67
2023-01-12T22:50:06.146Z,1.17
2023-01-12T22:52:54.921Z,2.10
2023-01-12T22:55:42.790Z,2.70
2023-01-12T22:58:31.323Z,2.10
2023-01-12T23:01:20.757Z,1.80
2023-01-12T23:04:12.856Z,1.57
2023-01-12T23:07:00.476Z,1.60
2023-01-12T23:09:48.544Z,1.87
2023-01-12T23:12:36.081Z,1.73
2023-01-12T23:15:23.583Z,2.27
2023-01-12T23:18:13.918Z,1.30
2023-01-12T23:21:16.579Z,1.47
2023-01-12T23:24:04.481Z,1.50
2023-01-12T23:26:52.029Z,1.60
2023-01-12T23:29:40.203Z,1.10
2023-01-12T23:32:27.773Z,1.20
2023-01-12T23:35:17.129Z,1.33
2023-01-12T23:38:06.555Z,1.40
2023-01-12T23:40:54.156Z,1.20
2023-01-12T23:43:43.743Z,1.53
2023-01-12T23:46:36.803Z,1.43
2023-01-12T23:49:24.908Z,2.00
2023-01-12T23:52:12.576Z,2.13
2023-01-12T23:55:00.446Z,1.37
2023-01-12T23:57:48.471Z,2.17
